Time;durP1;ratioP1;P1;durP2;ratioP2;P2;SDS_P1;SDS_P2;PMS_P1;PMS_P2;Temp;Humidity;BMP_temperature;BMP_pressure;BME280_temperature;BME280_humidity;BME280_pressure;Samples;Min_cycle;Max_cycle;Signal;HPM_P1;HPM_P2
2024/03/01 00:00:23;;;;;;;47.03;43.33;;;;;;;6.25;100.00;101296.63;5017560;28;20079;-72
2024/03/01 00:02:52;;;;;;;57.55;53.45;;;;;;;6.24;100.00;101290.53;5015404;28;20659;-73
2024/03/01 00:05:20;;;;;;;54.03;50.03;;;;;;;6.14;100.00;101293.31;5017369;28;20124;-73
2024/03/01 00:07:51;;;;;;;53.75;48.97;;;;;;;6.16;100.00;101291.31;5025588;28;20056;-73
2024/03/01 00:10:18;;;;;;;48.22;44.42;;;;;;;6.14;100.00;101284.56;5021818;28;20065;-73
2024/03/01 00:12:45;;;;;;;46.38;42.78;;;;;;;6.20;100.00;101281.25;5024814;28;20141;-73
2024/03/01 00:15:12;;;;;;;44.38;40.88;;;;;;;6.39;100.00;101283.59;5029102;28;20041;-73
2024/03/01 00:17:41;;;;;;;49.60;45.92;;;;;;;6.46;100.00;101283.75;5023462;28;20640;-73
2024/03/01 00:20:09;;;;;;;51.15;47.53;;;;;;;6.47;100.00;101277.50;5023424;28;20900;-73
2024/03/01 00:22:35;;;;;;;47.65;44.05;;;;;;;6.46;100.00;101275.03;5031027;28;20053;-73
2024/03/01 00:25:03;;;;;;;52.03;48.03;;;;;;;6.35;100.00;101282.25;5030817;28;20092;-73
2024/03/01 00:27:36;;;;;;;59.40;55.10;;;;;;;6.40;100.00;101274.69;5028391;28;20565;-73
2024/03/01 00:30:04;;;;;;;44.40;40.80;;;;;;;6.46;100.00;101278.50;5025264;28;20733;-72
2024/03/01 00:32:32;;;;;;;47.20;43.40;;;;;;;6.30;100.00;101274.03;5033425;28;20094;-72
2024/03/01 00:35:00;;;;;;;48.88;44.83;;;;;;;6.28;100.00;101270.72;5029629;28;20053;-72
2024/03/01 00:37:27;;;;;;;46.55;42.72;;;;;;;6.25;100.00;101278.97;5024732;28;20082;-72
2024/03/01 00:39:54;;;;;;;50.30;46.40;;;;;;;6.24;100.00;101282.59;5030442;28;20055;-72
2024/03/01 00:42:21;;;;;;;49.78;45.80;;;;;;;6.32;100.00;101279.94;5026258;28;20049;-73
2024/03/01 00:44:48;;;;;;;47.25;43.65;;;;;;;6.11;100.00;101280.47;5028271;28;20045;-72
2024/03/01 00:47:16;;;;;;;48.35;44.65;;;;;;;5.95;100.00;101283.03;5025199;28;20543;-72
2024/03/01 00:49:44;;;;;;;48.60;44.58;;;;;;;5.93;100.00;101275.31;5019991;28;20160;-71
2024/03/01 00:52:16;;;;;;;56.08;52.08;;;;;;;6.07;100.00;101273.03;5019697;28;20423;-70
2024/03/01 00:54:46;;;;;;;57.70;53.50;;;;;;;6.16;100.00;101269.41;5018270;28;20703;-72
2024/03/01 00:57:13;;;;;;;46.78;43.17;;;;;;;6.06;100.00;101266.09;5023576;28;20057;-72
2024/03/01 00:59:40;;;;;;;48.47;44.88;;;;;;;5.96;100.00;101263.59;5023804;28;20053;-72
2024/03/01 01:02:08;;;;;;;49.35;45.63;;;;;;;6.03;100.00;101263.78;5027865;28;20711;-72
2024/03/01 01:04:41;;;;;;;49.33;45.72;;;;;;;5.98;100.00;101261.63;5021626;28;20049;-72
2024/03/01 01:07:08;;;;;;;46.47;42.97;;;;;;;6.05;100.00;101267.06;5025886;28;20056;-70
2024/03/01 01:09:45;;;;;;;50.53;46.45;;;;;;;6.06;100.00;101263.47;5028748;28;20053;-71
2024/03/01 01:12:12;;;;;;;46.70;43.10;;;;;;;6.00;100.00;101259.66;5022699;28;20045;-72
2024/03/01 01:14:39;;;;;;;45.30;41.90;;;;;;;6.03;100.00;101250.59;5024624;28;20052;-72
2024/03/01 01:17:06;;;;;;;47.88;44.17;;;;;;;5.94;100.00;101250.59;5019519;28;20049;-72
2024/03/01 01:19:33;;;;;;;46.22;42.80;;;;;;;5.92;100.00;101252.53;5019499;28;20053;-72
2024/03/01 01:22:00;;;;;;;43.58;40.17;;;;;;;6.02;100.00;101257.69;5025494;28;20089;-71
2024/03/01 01:24:28;;;;;;;48.95;45.25;;;;;;;6.02;100.00;101243.66;5031733;28;20564;-70
2024/03/01 01:26:56;;;;;;;47.92;44.33;;;;;;;5.96;100.00;101251.25;5029324;28;20084;-73
2024/03/01 01:29:23;;;;;;;49.17;45.58;;;;;;;6.08;100.00;101237.75;5027689;28;20056;-72
2024/03/01 01:31:50;;;;;;;44.17;40.88;;;;;;;6.06;100.00;101227.38;5026000;28;20049;-73
2024/03/01 01:34:17;;;;;;;49.55;45.97;;;;;;;6.05;100.00;101248.63;5024789;28;20046;-72
2024/03/01 01:36:44;;;;;;;51.10;47.45;;;;;;;6.01;100.00;101247.31;5021616;28;20547;-72
2024/03/01 01:39:11;;;;;;;45.30;41.88;;;;;;;6.05;100.00;101253.88;5024800;28;20050;-73
2024/03/01 01:41:38;;;;;;;49.45;45.65;;;;;;;6.18;100.00;101243.69;5025724;28;20053;-71
2024/03/01 01:44:07;;;;;;;49.78;46.00;;;;;;;6.14;100.00;101242.34;5016164;28;20046;-70
2024/03/01 01:46:34;;;;;;;46.13;42.47;;;;;;;6.16;100.00;101238.56;5026691;28;20781;-72
2024/03/01 01:49:01;;;;;;;44.97;41.58;;;;;;;6.11;100.00;101234.78;5026165;28;20140;-72
2024/03/01 01:51:31;;;;;;;51.10;47.40;;;;;;;6.16;100.00;101232.47;5025025;28;20045;-72
2024/03/01 01:53:58;;;;;;;46.80;43.25;;;;;;;6.16;100.00;101227.19;5022281;28;20135;-72
2024/03/01 01:56:26;;;;;;;45.65;42.28;;;;;;;6.12;100.00;101231.16;5024628;28;20058;-72
2024/03/01 01:58:54;;;;;;;58.00;53.08;;;;;;;5.97;100.00;101238.91;5022962;28;20505;-72
2024/03/01 02:01:26;;;;;;;47.22;43.72;;;;;;;5.85;100.00;101246.25;5026117;28;20046;-72
2024/03/01 02:03:54;;;;;;;45.50;42.00;;;;;;;5.87;100.00;101230.25;5016743;28;20834;-72
2024/03/01 02:06:21;;;;;;;50.22;46.35;;;;;;;5.66;100.00;101230.75;5026461;28;20046;-72
2024/03/01 02:08:49;;;;;;;50.45;46.70;;;;;;;6.00;100.00;101237.75;5019412;28;20056;-72
2024/03/01 02:11:24;;;;;;;50.22;46.22;;;;;;;5.68;100.00;101241.94;5014486;28;20061;-72
2024/03/01 02:13:54;;;;;;;57.42;53.33;;;;;;;6.01;100.00;101240.22;5026596;28;20057;-73
2024/03/01 02:16:21;;;;;;;54.67;50.05;;;;;;;5.91;100.00;101250.06;5025023;28;20060;-72
2024/03/01 02:18:50;;;;;;;51.53;47.25;;;;;;;5.95;100.00;101240.84;5020913;28;20145;-73
2024/03/01 02:21:22;;;;;;;48.22;44.63;;;;;;;5.88;100.00;101255.66;5031501;28;20057;-72
2024/03/01 02:23:51;;;;;;;52.42;48.63;;;;;;;5.97;100.00;101252.91;5025688;28;20063;-71
2024/03/01 02:26:18;;;;;;;51.63;47.80;;;;;;;5.96;100.00;101259.16;5020963;28;20054;-71
2024/03/01 02:28:46;;;;;;;48.15;44.55;;;;;;;5.68;100.00;101255.09;5028070;28;20057;-71
2024/03/01 02:31:15;;;;;;;48.67;45.08;;;;;;;5.73;100.00;101263.38;5023396;28;20060;-71
2024/03/01 02:33:47;;;;;;;48.70;45.10;;;;;;;5.81;100.00;101265.19;5012302;28;20452;-70
2024/03/01 02:36:14;;;;;;;45.30;42.00;;;;;;;5.69;100.00;101267.31;5025423;28;20045;-72
2024/03/01 02:38:41;;;;;;;58.40;54.15;;;;;;;5.39;100.00;101260.78;5019429;28;20054;-70
2024/03/01 02:41:18;;;;;;;52.80;48.88;;;;;;;5.61;100.00;101265.47;5021215;28;20069;-70
2024/03/01 02:43:51;;;;;;;47.47;43.60;;;;;;;5.61;100.00;101273.38;5014935;28;20144;-70
2024/03/01 02:46:24;;;;;;;52.78;49.08;;;;;;;5.60;100.00;101266.47;5009487;28;20069;-70
2024/03/01 02:48:53;;;;;;;53.63;49.35;;;;;;;5.62;100.00;101259.19;5027819;28;20061;-70
2024/03/01 02:51:22;;;;;;;47.40;43.80;;;;;;;5.59;100.00;101256.06;5018503;28;20687;-71
2024/03/01 02:53:52;;;;;;;50.47;46.58;;;;;;;5.58;100.00;101257.88;5035367;28;20473;-70
2024/03/01 02:56:26;;;;;;;51.97;48.28;;;;;;;5.59;100.00;101250.78;5017481;28;20081;-70
2024/03/01 02:58:57;;;;;;;54.72;50.75;;;;;;;5.61;100.00;101247.03;5014305;28;20046;-70
2024/03/01 03:01:30;;;;;;;49.83;45.97;;;;;;;5.58;100.00;101244.72;5013470;28;20443;-70
2024/03/01 03:04:02;;;;;;;51.97;47.97;;;;;;;5.47;100.00;101251.06;5027511;28;20054;-71
2024/03/01 03:06:33;;;;;;;51.08;47.42;;;;;;;5.50;100.00;101250.75;5024412;28;20444;-70
2024/03/01 03:09:00;;;;;;;43.40;40.20;;;;;;;5.48;100.00;101255.38;5032624;28;20049;-71
2024/03/01 03:11:34;;;;;;;51.35;47.55;;;;;;;5.44;100.00;101256.66;5025223;28;20492;-72
2024/03/01 03:14:02;;;;;;;56.45;52.15;;;;;;;5.45;100.00;101247.81;5022439;28;20499;-72
2024/03/01 03:16:29;;;;;;;51.95;47.83;;;;;;;5.36;100.00;101256.66;5012685;28;20468;-72
2024/03/01 03:18:55;;;;;;;61.70;57.20;;;;;;;5.28;100.00;101256.63;5027751;28;20052;-72
2024/03/01 03:21:23;;;;;;;63.70;59.40;;;;;;;5.28;100.00;101257.44;5032685;28;20077;-72
2024/03/01 03:23:50;;;;;;;51.00;47.08;;;;;;;5.41;100.00;101259.63;5012694;28;20050;-72
2024/03/01 03:26:17;;;;;;;51.88;47.97;;;;;;;5.44;100.00;101247.94;5021960;28;20142;-72
2024/03/01 03:28:45;;;;;;;52.38;48.25;;;;;;;5.34;100.00;101250.72;5019638;28;20069;-72
2024/03/01 03:31:12;;;;;;;60.22;55.63;;;;;;;5.36;100.00;101251.38;5022314;28;20107;-72
2024/03/01 03:33:39;;;;;;;60.33;55.85;;;;;;;5.26;100.00;101242.75;5016426;28;20444;-72
2024/03/01 03:36:09;;;;;;;56.45;52.05;;;;;;;5.33;100.00;101238.53;5023183;28;20050;-72
2024/03/01 03:38:36;;;;;;;51.70;47.60;;;;;;;5.32;100.00;101231.59;5017521;28;20049;-72
2024/03/01 03:41:04;;;;;;;47.17;43.42;;;;;;;5.45;100.00;101225.91;5024500;28;20138;-72
2024/03/01 03:43:31;;;;;;;51.50;47.47;;;;;;;5.50;100.00;101226.22;5016027;28;20707;-73
2024/03/01 03:45:59;;;;;;;57.17;52.88;;;;;;;5.46;100.00;101220.47;5026005;28;20050;-73
2024/03/01 03:48:52;;;;;;;51.05;47.15;;;;;;;5.36;100.00;101221.59;5014666;28;20045;-72
2024/03/01 03:51:24;;;;;;;51.35;47.15;;;;;;;5.42;100.00;101208.59;5036913;28;20045;-72
2024/03/01 03:53:52;;;;;;;52.95;48.85;;;;;;;5.55;100.00;101199.41;5032276;28;20052;-72
2024/03/01 03:56:19;;;;;;;52.35;48.35;;;;;;;5.39;100.00;101227.34;5035370;28;20049;-72
2024/03/01 03:58:45;;;;;;;53.85;49.75;;;;;;;5.25;100.00;101246.38;5021494;28;20053;-72
2024/03/01 04:01:33;;;;;;;65.50;60.60;;;;;;;5.37;100.00;101231.94;5010733;28;20108;-72
2024/03/01 04:04:00;;;;;;;49.75;45.60;;;;;;;5.32;100.00;101234.22;5013982;28;20509;-69
2024/03/01 04:06:28;;;;;;;52.70;48.40;;;;;;;5.30;100.00;101230.94;5012181;28;20455;-70
2024/03/01 04:08:55;;;;;;;60.45;55.83;;;;;;;5.33;100.00;101221.91;5025252;28;20057;-70
2024/03/01 04:11:27;;;;;;;61.45;57.00;;;;;;;5.45;100.00;101203.00;5018842;28;20479;-69
2024/03/01 04:13:58;;;;;;;50.40;46.55;;;;;;;5.42;100.00;101197.25;5016942;28;20439;-70
2024/03/01 04:16:29;;;;;;;48.47;43.87;;;;;;;5.42;100.00;101205.97;5011621;28;20123;-70
2024/03/01 04:19:02;;;;;;;48.88;45.17;;;;;;;5.32;100.00;101217.59;5024461;28;20141;-70
2024/03/01 04:21:35;;;;;;;47.55;43.85;;;;;;;5.32;100.00;101204.44;5022029;28;20054;-70
2024/03/01 04:24:08;;;;;;;51.80;47.90;;;;;;;5.28;100.00;101207.38;5030638;28;20520;-70
2024/03/01 04:26:42;;;;;;;59.90;55.60;;;;;;;5.26;100.00;101211.16;5021211;28;20060;-70
2024/03/01 04:29:13;;;;;;;47.70;44.00;;;;;;;5.27;100.00;101199.66;5014897;28;20050;-70
2024/03/01 04:31:48;;;;;;;54.38;50.08;;;;;;;5.46;100.00;101201.19;5025550;28;20060;-70
2024/03/01 04:34:23;;;;;;;56.22;52.13;;;;;;;5.28;100.00;101191.59;5025186;28;20089;-70
2024/03/01 04:36:57;;;;;;;60.92;56.72;;;;;;;5.30;100.00;101188.81;5018799;28;20708;-70
2024/03/01 04:39:28;;;;;;;63.70;59.33;;;;;;;5.32;100.00;101180.72;5024398;28;20550;-70
2024/03/01 04:41:58;;;;;;;63.28;59.03;;;;;;;5.26;100.00;101203.25;5020171;28;20069;-70
2024/03/01 04:44:30;;;;;;;61.38;56.70;;;;;;;5.26;100.00;101205.88;5019970;28;20070;-69
2024/03/01 04:47:01;;;;;;;68.20;63.43;;;;;;;5.24;100.00;101219.22;5008864;28;20042;-70
2024/03/01 04:49:31;;;;;;;51.38;47.38;;;;;;;5.36;100.00;101214.50;5025706;28;20327;-72
2024/03/01 04:51:57;;;;;;;49.70;45.95;;;;;;;5.54;100.00;101216.19;5015863;28;20171;-72
2024/03/01 04:54:24;;;;;;;47.72;43.95;;;;;;;5.58;100.00;101212.25;5039665;28;20136;-70
2024/03/01 04:56:51;;;;;;;47.63;43.58;;;;;;;5.43;100.00;101243.66;5033797;28;20070;-72
2024/03/01 04:59:18;;;;;;;44.35;40.75;;;;;;;5.43;100.00;101256.84;5025957;28;20053;-72
2024/03/01 05:01:45;;;;;;;43.88;40.40;;;;;;;5.43;100.00;101230.50;5021420;28;20057;-72
2024/03/01 05:04:12;;;;;;;45.33;41.92;;;;;;;5.36;100.00;101242.66;5020858;28;20455;-72
2024/03/01 05:06:40;;;;;;;47.85;44.05;;;;;;;5.61;100.00;101219.84;5029531;28;20561;-72
2024/03/01 05:09:15;;;;;;;43.83;40.45;;;;;;;5.49;100.00;101225.41;5025953;28;20049;-72
2024/03/01 05:11:48;;;;;;;45.72;42.20;;;;;;;5.55;100.00;101212.59;5030503;28;20136;-72
2024/03/01 05:14:15;;;;;;;41.95;38.85;;;;;;;5.90;100.00;101217.59;5023406;28;20493;-72
2024/03/01 05:16:42;;;;;;;41.45;38.30;;;;;;;5.61;100.00;101217.22;5031362;28;20053;-72
2024/03/01 05:19:09;;;;;;;44.42;41.47;;;;;;;5.51;100.00;101230.53;5023357;28;20045;-72
2024/03/01 05:21:36;;;;;;;44.58;41.38;;;;;;;5.43;100.00;101236.59;5030798;28;20050;-70
2024/03/01 05:24:05;;;;;;;52.42;48.53;;;;;;;5.53;100.00;101249.63;5028480;28;20065;-72
2024/03/01 05:26:33;;;;;;;49.95;46.00;;;;;;;5.42;100.00;101277.09;5031512;28;20049;-72
2024/03/01 05:29:00;;;;;;;44.90;41.40;;;;;;;5.57;100.00;101264.16;5027915;28;20575;-71
2024/03/01 05:31:28;;;;;;;45.45;42.05;;;;;;;5.54;100.00;101255.72;5027301;28;20439;-70
2024/03/01 05:33:55;;;;;;;46.60;43.20;;;;;;;5.61;100.00;101270.75;5021047;28;20064;-71
2024/03/01 05:36:22;;;;;;;47.25;43.45;;;;;;;5.53;100.00;101246.97;5028961;28;20049;-72
2024/03/01 05:38:49;;;;;;;53.45;49.45;;;;;;;7.24;100.00;101235.59;5027219;28;20057;-72
2024/03/01 05:41:20;;;;;;;41.00;38.13;;;;;;;6.56;100.00;101226.34;5030060;28;20421;-72
2024/03/01 05:44:08;;;;;;;39.20;36.40;;;;;;;5.92;100.00;101223.50;5014453;28;20057;-73
2024/03/01 05:46:35;;;;;;;38.15;35.30;;;;;;;5.70;100.00;101234.69;5023446;28;20049;-71
2024/03/01 05:49:03;;;;;;;38.85;35.85;;;;;;;5.57;100.00;101244.84;5026076;28;20041;-72
2024/03/01 05:51:30;;;;;;;42.25;39.15;;;;;;;5.50;100.00;101240.22;5029486;28;20802;-72
2024/03/01 05:53:57;;;;;;;43.53;40.10;;;;;;;5.52;100.00;101240.06;5029251;28;20417;-72
2024/03/01 05:56:25;;;;;;;43.83;40.63;;;;;;;5.69;100.00;101246.22;5028149;28;20507;-72
2024/03/01 05:58:52;;;;;;;47.45;43.85;;;;;;;5.75;100.00;101242.94;5024933;28;20054;-71
2024/03/01 06:01:20;;;;;;;46.45;42.95;;;;;;;5.77;100.00;101240.97;5016976;28;20057;-71
2024/03/01 06:03:47;;;;;;;43.10;40.03;;;;;;;5.70;100.00;101235.50;5022694;28;20061;-72
2024/03/01 06:06:18;;;;;;;43.53;40.33;;;;;;;5.71;100.00;101233.69;5015890;28;20059;-72
2024/03/01 06:08:45;;;;;;;46.17;42.67;;;;;;;5.66;100.00;101241.28;5031118;28;20095;-71
2024/03/01 06:11:12;;;;;;;49.97;46.28;;;;;;;5.60;100.00;101226.94;5019652;28;20060;-72
2024/03/01 06:13:41;;;;;;;47.45;43.95;;;;;;;5.68;100.00;101232.19;5018905;28;20060;-72
2024/03/01 06:16:09;;;;;;;49.05;45.40;;;;;;;5.75;100.00;101219.22;5031600;28;20065;-72
2024/03/01 06:18:36;;;;;;;50.33;45.67;;;;;;;5.85;100.00;101221.72;5012001;28;20509;-72
2024/03/01 06:21:03;;;;;;;49.63;45.58;;;;;;;5.80;100.00;101203.72;5025687;28;20053;-72
2024/03/01 06:23:37;;;;;;;45.42;42.28;;;;;;;5.87;100.00;101209.16;5029085;28;20068;-73
2024/03/01 06:26:04;;;;;;;48.25;44.85;;;;;;;5.78;100.00;101204.88;5027653;28;20073;-72
2024/03/01 06:28:30;;;;;;;51.90;48.03;;;;;;;5.80;100.00;101205.53;5027071;28;20049;-72
2024/03/01 06:31:03;;;;;;;46.38;42.97;;;;;;;5.89;100.00;101194.84;5027128;28;20677;-71
2024/03/01 06:33:32;;;;;;;47.88;44.55;;;;;;;5.81;100.00;101189.59;5029364;28;20108;-71
2024/03/01 06:36:00;;;;;;;50.05;46.45;;;;;;;5.77;100.00;101182.16;5029512;28;20057;-71
2024/03/01 06:38:28;;;;;;;51.42;47.58;;;;;;;5.95;100.00;101181.03;5023025;28;20857;-72
2024/03/01 06:40:54;;;;;;;53.80;50.30;;;;;;;7.32;100.00;101171.31;5027727;28;20057;-72
2024/03/01 06:43:21;;;;;;;45.78;42.58;;;;;;;6.18;100.00;101160.09;5030206;28;20049;-72
2024/03/01 06:45:49;;;;;;;46.22;42.53;;;;;;;6.34;100.00;101161.91;5030026;28;20061;-72
2024/03/01 06:48:22;;;;;;;48.40;44.67;;;;;;;6.24;100.00;101144.63;5028500;28;20061;-72
2024/03/01 06:50:49;;;;;;;50.25;46.55;;;;;;;6.30;100.00;101128.13;5029525;28;20053;-72
2024/03/01 06:53:34;;;;;;;50.78;46.97;;;;;;;6.62;100.00;101116.63;5025289;28;20512;-72
2024/03/01 06:56:02;;;;;;;55.25;50.75;;;;;;;6.97;100.00;101109.25;5033207;28;20045;-72
2024/03/01 06:58:29;;;;;;;43.85;40.55;;;;;;;6.72;100.00;101097.94;5021038;28;20061;-72
2024/03/01 07:00:56;;;;;;;50.25;46.35;;;;;;;6.57;100.00;101103.16;5027625;28;20444;-72
2024/03/01 07:03:24;;;;;;;49.75;45.90;;;;;;;6.57;100.00;101119.81;5023416;28;20057;-72
2024/03/01 07:05:51;;;;;;;51.67;47.97;;;;;;;6.58;100.00;101123.25;5032628;28;21795;-73
2024/03/01 07:08:21;;;;;;;52.13;47.70;;;;;;;6.60;100.00;101145.84;5018229;28;20045;-72
2024/03/01 07:10:48;;;;;;;56.28;50.78;;;;;;;6.60;100.00;101164.34;5029417;28;20053;-72
2024/03/01 07:13:15;;;;;;;53.15;49.17;;;;;;;6.60;100.00;101174.06;5032315;28;20072;-72
2024/03/01 07:15:42;;;;;;;54.65;50.60;;;;;;;6.58;100.00;101178.69;5029575;28;20064;-72
2024/03/01 07:18:08;;;;;;;51.53;47.50;;;;;;;6.80;100.00;101183.22;5024913;28;20505;-72
2024/03/01 07:20:37;;;;;;;55.10;50.90;;;;;;;7.15;100.00;101186.44;5017721;28;20064;-72
2024/03/01 07:23:04;;;;;;;52.15;48.45;;;;;;;7.19;100.00;101185.06;5039235;28;20076;-72
2024/03/01 07:25:31;;;;;;;48.30;44.88;;;;;;;7.23;100.00;101167.06;5018188;28;20057;-72
2024/03/01 07:27:58;;;;;;;46.28;42.78;;;;;;;7.28;100.00;101176.13;5024190;28;20054;-72
2024/03/01 07:30:24;;;;;;;48.53;45.03;;;;;;;7.52;100.00;101183.09;5027232;28;20060;-71
2024/03/01 07:32:53;;;;;;;51.00;47.50;;;;;;;7.42;100.00;101179.84;5025020;28;20053;-70
2024/03/01 07:35:20;;;;;;;62.70;57.00;;;;;;;7.54;100.00;101183.75;5017741;28;20574;-70
2024/03/01 07:37:49;;;;;;;64.38;57.78;;;;;;;7.47;100.00;101185.41;5032787;28;20049;-70
2024/03/01 07:40:16;;;;;;;67.95;60.65;;;;;;;7.62;100.00;101192.63;5026604;28;20813;-71
2024/03/01 07:42:43;;;;;;;76.75;68.50;;;;;;;7.61;100.00;101188.34;5025146;28;20049;-70
2024/03/01 07:45:11;;;;;;;56.22;50.40;;;;;;;7.91;100.00;101182.16;5021918;28;20044;-72
2024/03/01 07:47:42;;;;;;;71.93;59.95;;;;;;;7.99;100.00;101184.75;5028187;28;20111;-70
2024/03/01 07:50:09;;;;;;;73.03;64.88;;;;;;;8.07;100.00;101175.91;5027984;28;20080;-70
2024/03/01 07:52:36;;;;;;;80.80;71.63;;;;;;;7.89;100.00;101173.59;5022992;28;20064;-71
2024/03/01 07:55:05;;;;;;;76.60;66.38;;;;;;;8.22;100.00;101168.84;5029142;28;20056;-71
2024/03/01 07:57:32;;;;;;;72.75;65.07;;;;;;;8.59;100.00;101161.06;5024714;28;20440;-71
2024/03/01 07:59:59;;;;;;;59.65;53.35;;;;;;;8.47;100.00;101163.34;5026016;28;20060;-71
2024/03/01 08:02:26;;;;;;;80.80;71.53;;;;;;;8.66;100.00;101162.00;5021128;28;20424;-70
2024/03/01 08:04:55;;;;;;;75.65;67.50;;;;;;;8.92;100.00;101164.19;5015563;28;20771;-70
2024/03/01 08:07:24;;;;;;;76.47;63.88;;;;;;;8.93;100.00;101160.53;5024678;28;20049;-71
2024/03/01 08:09:51;;;;;;;79.25;70.55;;;;;;;8.83;100.00;101157.34;5021529;28;20084;-71
2024/03/01 08:12:20;;;;;;;64.55;58.50;;;;;;;8.76;100.00;101148.50;5020177;28;20107;-70
2024/03/01 08:14:47;;;;;;;71.00;63.60;;;;;;;8.88;100.00;101155.78;5027985;28;20474;-70
2024/03/01 08:17:14;;;;;;;66.50;60.00;;;;;;;9.16;100.00;101144.50;5256112;23;20064;-94
2024/03/01 08:19:57;;;;;;;69.32;62.67;;;;;;;9.51;100.00;101142.84;5045251;28;20018;-96
2024/03/01 08:25:27;;;;;;;74.03;67.13;;;;;;;9.19;100.00;101128.22;5034728;28;19936;-93
2024/03/01 08:27:59;;;;;;;68.82;62.03;;;;;;;9.23;100.00;101123.38;5042586;28;20056;-93
2024/03/01 08:30:44;;;;;;;82.20;73.20;;;;;;;9.30;100.00;101124.28;5036364;28;20057;-93
2024/03/01 08:33:17;;;;;;;78.65;70.45;;;;;;;9.39;100.00;101123.97;5045043;28;20083;-95
2024/03/01 08:35:44;;;;;;;86.40;77.10;;;;;;;9.75;100.00;101116.97;5041135;28;20057;-95
2024/03/01 08:41:30;;;;;;;91.50;82.22;;;;;;;10.00;100.00;101110.25;5045963;23;20466;-70
2024/03/01 08:43:59;;;;;;;73.60;65.90;;;;;;;10.03;100.00;101107.19;5024888;28;20440;-71
2024/03/01 08:46:32;;;;;;;66.30;59.90;;;;;;;10.24;100.00;101100.22;5025789;28;20061;-71
2024/03/01 08:49:03;;;;;;;74.32;66.43;;;;;;;10.39;100.00;101081.53;5022135;28;20057;-70
2024/03/01 08:51:32;;;;;;;87.47;78.22;;;;;;;10.54;100.00;101076.91;5037394;28;20068;-71
2024/03/01 08:54:00;;;;;;;82.93;74.75;;;;;;;10.40;100.00;101069.91;5028427;28;20443;-70
2024/03/01 08:56:34;;;;;;;87.72;78.55;;;;;;;10.73;100.00;101064.75;5024185;28;20084;-69
2024/03/01 08:59:08;;;;;;;81.40;73.40;;;;;;;10.50;100.00;101078.34;5026134;28;20045;-70
2024/03/01 09:01:47;;;;;;;85.65;77.05;;;;;;;10.32;100.00;101071.72;5022811;28;20085;-69
2024/03/01 09:04:20;;;;;;;66.85;60.28;;;;;;;10.58;100.00;101074.69;5026743;28;20742;-70
2024/03/01 09:07:00;;;;;;;87.65;79.22;;;;;;;10.76;100.00;101074.97;5025483;28;20045;-71
2024/03/01 09:09:26;;;;;;;63.70;57.20;;;;;;;10.68;100.00;101083.09;5027109;28;20068;-71
2024/03/01 09:11:54;;;;;;;73.22;65.93;;;;;;;10.52;100.00;101084.25;5028409;28;20054;-71
2024/03/01 09:14:30;;;;;;;78.90;62.05;;;;;;;10.30;100.00;101096.81;5027712;28;20046;-71
2024/03/01 09:16:58;;;;;;;77.40;69.45;;;;;;;10.18;100.00;101103.63;5027435;28;20127;-70
2024/03/01 09:19:26;;;;;;;61.83;55.60;;;;;;;10.36;100.00;101092.56;5028108;28;20057;-71
2024/03/01 09:21:53;;;;;;;65.80;59.53;;;;;;;10.42;100.00;101092.59;5026405;28;20130;-71
2024/03/01 09:24:22;;;;;;;75.38;67.97;;;;;;;10.50;100.00;101097.75;5026063;28;20049;-70
2024/03/01 09:26:50;;;;;;;68.88;62.58;;;;;;;10.48;100.00;101101.63;5029538;28;20050;-69
2024/03/01 09:29:34;;;;;;;60.45;54.65;;;;;;;10.68;100.00;101093.72;5017665;28;20061;-70
2024/03/01 09:32:01;;;;;;;82.43;73.85;;;;;;;10.73;100.00;101086.00;5014352;28;20037;-70
2024/03/01 09:34:34;;;;;;;78.72;70.72;;;;;;;10.81;100.00;101087.69;5013710;28;20087;-69
2024/03/01 09:37:04;;;;;;;60.20;55.03;;;;;;;10.83;100.00;101086.44;5013797;28;20049;-70
2024/03/01 09:39:33;;;;;;;71.18;64.70;;;;;;;11.11;100.00;101078.38;5019975;28;20062;-70
2024/03/01 09:42:36;;;;;;;83.05;74.43;;;;;;;11.21;100.00;101080.63;5022203;28;20058;-70
2024/03/01 09:45:20;;;;;;;80.82;72.75;;;;;;;11.36;100.00;101085.78;5014583;28;20555;-71
2024/03/01 09:48:05;;;;;;;74.63;67.72;;;;;;;11.49;100.00;101091.13;5018828;28;20064;-70
2024/03/01 09:50:41;;;;;;;71.13;64.10;;;;;;;11.53;100.00;101079.06;5017874;28;20049;-71
2024/03/01 09:53:20;;;;;;;68.47;62.13;;;;;;;11.59;100.00;101074.75;5022013;28;20057;-71
2024/03/01 09:55:53;;;;;;;63.15;57.67;;;;;;;11.66;100.00;101078.25;5012085;28;20517;-70
2024/03/01 09:58:34;;;;;;;77.57;70.18;;;;;;;11.78;100.00;101081.13;5026356;28;20056;-70
2024/03/01 10:01:11;;;;;;;78.68;71.28;;;;;;;11.94;100.00;101074.59;5018296;28;20060;-70
2024/03/01 10:03:44;;;;;;;79.43;71.78;;;;;;;12.00;100.00;101073.75;5021508;28;20076;-70
2024/03/01 10:06:34;;;;;;;81.35;72.95;;;;;;;12.08;100.00;101063.72;5018731;28;20049;-70
2024/03/01 10:09:11;;;;;;;83.82;74.93;;;;;;;12.15;100.00;101056.53;5023456;28;20046;-70
2024/03/01 10:11:52;;;;;;;68.43;61.20;;;;;;;12.15;100.00;101063.72;5022366;28;20049;-70
2024/03/01 10:14:32;;;;;;;30.58;28.58;;;;;;;12.10;100.00;101074.16;5023546;28;20049;-69
2024/03/01 10:17:11;;;;;;;29.45;27.55;;;;;;;12.05;100.00;101068.66;5010365;28;20060;-70
2024/03/01 10:20:07;;;;;;;28.10;25.85;;;;;;;12.15;100.00;101056.53;5027191;28;20913;-70
2024/03/01 10:22:48;;;;;;;28.05;26.23;;;;;;;11.99;100.00;101056.16;5017936;28;20054;-70
2024/03/01 10:25:24;;;;;;;28.58;26.77;;;;;;;12.15;100.00;101045.06;5015628;28;20057;-71
2024/03/01 10:27:55;;;;;;;28.33;26.52;;;;;;;12.26;100.00;101039.13;5022094;28;20054;-69
2024/03/01 10:30:28;;;;;;;27.65;25.85;;;;;;;12.30;100.00;101034.19;5019252;28;20060;-70
2024/03/01 10:33:13;;;;;;;30.30;28.10;;;;;;;12.42;100.00;101021.84;5027566;28;20057;-70
2024/03/01 10:35:46;;;;;;;28.98;27.08;;;;;;;12.54;100.00;101017.50;5020881;28;20053;-70
2024/03/01 10:38:23;;;;;;;32.25;30.25;;;;;;;12.27;100.00;101014.09;5011476;28;20054;-70
2024/03/01 10:40:59;;;;;;;33.10;31.00;;;;;;;12.57;100.00;101010.94;5017282;28;20061;-70
2024/03/01 10:43:33;;;;;;;41.30;38.80;;;;;;;12.78;100.00;101004.47;5023839;28;20057;-70
2024/03/01 10:46:06;;;;;;;37.00;34.40;;;;;;;13.21;100.00;101023.28;5017858;28;20050;-69
2024/03/01 10:48:43;;;;;;;43.35;40.90;;;;;;;14.16;100.00;101015.09;5016661;28;20112;-70
2024/03/01 10:51:15;;;;;;;30.88;28.98;;;;;;;14.35;100.00;101015.09;5028773;28;20475;-69
2024/03/01 10:53:47;;;;;;;31.40;29.40;;;;;;;14.65;100.00;101009.81;5024546;28;20057;-70
2024/03/01 10:56:15;;;;;;;36.28;33.92;;;;;;;13.56;100.00;101017.53;5016209;28;20052;-70
2024/03/01 10:58:47;;;;;;;39.58;37.28;;;;;;;13.98;100.00;101029.25;5021590;28;20541;-70
2024/03/01 11:01:24;;;;;;;46.40;43.60;;;;;;;14.19;100.00;101008.47;5029075;28;20786;-70
2024/03/01 11:04:02;;;;;;;34.75;32.65;;;;;;;14.40;100.00;101009.88;5014144;28;20315;-70
2024/03/01 11:06:34;;;;;;;36.00;33.55;;;;;;;14.61;100.00;101004.13;5014236;28;20057;-70
2024/03/01 11:09:05;;;;;;;33.50;31.40;;;;;;;14.53;100.00;100996.41;5014612;28;20136;-70
2024/03/01 11:11:40;;;;;;;35.30;33.30;;;;;;;14.50;100.00;100988.78;5023845;28;20595;-70
2024/03/01 11:14:11;;;;;;;35.17;33.15;;;;;;;14.49;100.00;100992.50;5018402;28;20058;-70
2024/03/01 11:16:40;;;;;;;32.38;30.48;;;;;;;14.18;100.00;100991.63;5013292;28;20050;-70
2024/03/01 11:19:14;;;;;;;32.05;30.05;;;;;;;14.26;100.00;100982.50;5022108;28;20528;-71
2024/03/01 11:21:47;;;;;;;35.70;33.40;;;;;;;14.10;100.00;100967.91;5013924;28;20968;-70
2024/03/01 11:24:20;;;;;;;35.03;32.80;;;;;;;14.11;100.00;100966.84;5023548;28;20727;-71
2024/03/01 11:26:51;;;;;;;37.70;35.40;;;;;;;14.29;100.00;100962.56;5016060;28;20136;-70